Decoded Metar for KLQK ( in ) (IATA:) | Meteo·Mobile Aviation Weather
aviador You're here:

KLQK Decoded Metar

in
Report Time2018-12-16 09:55:00
UTC Time2018-12-16 10:11:49
Flight Rules mvfr MVFR
WindCalm
Visibility6437 m
Phenomena:Mist
Clouds:N/A
CeilingNone
Temp04°C
Dew Point04°C (100% RH)
AAT2.7°C
QNH1015 hPa
Raw Report
METAR KLQK 160955Z AUTO 00000KT 4SM BR CLR 04/04 A2996 RMK AO2 T00370037=

Extra information for KLQK:More info

Social comments